createdAt,value
2019-04-06T00:02:03.023Z,44.70
2019-04-06T00:04:35.139Z,38.67
2019-04-06T00:07:06.661Z,60.60
2019-04-06T00:09:39.052Z,86.42
2019-04-06T00:12:10.941Z,82.57
2019-04-06T00:14:42.879Z,82.20
2019-04-06T00:17:16.997Z,85.75
2019-04-06T00:19:48.511Z,53.28
2019-04-06T00:22:20.562Z,98.72
2019-04-06T00:24:52.532Z,67.70
2019-04-06T00:27:24.679Z,114.82
2019-04-06T00:29:56.210Z,52.33
2019-04-06T00:32:30.123Z,59.67
2019-04-06T00:35:02.619Z,47.08
2019-04-06T00:37:33.867Z,45.45
2019-04-06T00:40:07.949Z,41.92
2019-04-06T00:42:41.768Z,40.48
2019-04-06T00:45:14.060Z,40.28
2019-04-06T00:47:45.467Z,43.28
2019-04-06T00:50:19.406Z,42.98
2019-04-06T00:52:52.009Z,44.40
2019-04-06T00:55:23.936Z,42.85
2019-04-06T00:57:56.736Z,40.67
2019-04-06T01:00:29.425Z,44.27
2019-04-06T01:03:03.570Z,42.35
2019-04-06T01:05:35.981Z,42.15
2019-04-06T01:08:10.253Z,38.80
2019-04-06T01:10:44.692Z,38.55
2019-04-06T01:13:17.606Z,36.55
2019-04-06T01:15:49.785Z,39.83
2019-04-06T01:18:21.098Z,39.48
2019-04-06T01:20:53.358Z,40.43
2019-04-06T01:23:27.711Z,41.10
2019-04-06T01:26:06.929Z,41.30
2019-04-06T01:28:33.849Z,39.80
2019-04-06T01:31:07.045Z,45.00
2019-04-06T01:33:38.400Z,38.20
2019-04-06T01:36:10.785Z,37.63
2019-04-06T01:38:45.004Z,37.58
2019-04-06T01:41:16.319Z,38.02
2019-04-06T01:43:50.025Z,36.95
2019-04-06T01:46:22.322Z,36.75
2019-04-06T01:48:56.294Z,34.53
2019-04-06T01:51:27.771Z,34.50
2019-04-06T01:54:00.048Z,33.63
2019-04-06T01:56:32.877Z,33.48
2019-04-06T01:59:05.115Z,34.83
2019-04-06T02:01:38.653Z,32.98
2019-04-06T02:04:12.133Z,30.60
2019-04-06T02:06:43.270Z,29.82
2019-04-06T02:09:14.578Z,29.42
2019-04-06T02:11:48.072Z,27.42
2019-04-06T02:14:20.548Z,27.07
2019-04-06T02:16:54.836Z,26.48
2019-04-06T02:19:29.309Z,26.45
2019-04-06T02:22:01.488Z,25.43
2019-04-06T02:24:33.818Z,24.60
2019-04-06T02:27:06.990Z,23.95
2019-04-06T02:29:38.177Z,23.27
2019-04-06T02:32:11.040Z,23.00
2019-04-06T02:34:49.532Z,23.47
2019-04-06T02:37:22.987Z,23.20
2019-04-06T02:39:58.684Z,21.33
2019-04-06T02:42:32.370Z,22.90
2019-04-06T02:45:04.829Z,23.45
2019-04-06T02:47:37.454Z,23.02
2019-04-06T02:50:10.826Z,24.70
2019-04-06T02:52:44.785Z,23.40
2019-04-06T02:55:19.993Z,23.55
2019-04-06T02:57:52.465Z,22.35
2019-04-06T03:00:42.285Z,24.18
2019-04-06T03:03:14.462Z,23.75
2019-04-06T03:05:48.449Z,23.65
2019-04-06T03:08:24.372Z,25.02
2019-04-06T03:10:56.497Z,26.12
2019-04-06T03:13:32.022Z,23.92
2019-04-06T03:16:03.111Z,23.95
2019-04-06T03:18:35.107Z,23.85
2019-04-06T03:21:07.608Z,24.32
2019-04-06T03:23:50.842Z,24.85
2019-04-06T03:26:14.029Z,24.52
2019-04-06T03:28:49.498Z,24.75
2019-04-06T03:31:25.179Z,24.02
2019-04-06T03:33:54.644Z,22.97
2019-04-06T03:39:14.637Z,23.38
2019-04-06T03:42:04.274Z,22.02
2019-04-06T03:44:35.757Z,21.45
2019-04-06T03:47:16.632Z,22.58
2019-04-06T03:49:49.101Z,21.55
2019-04-06T03:52:21.161Z,22.17
2019-04-06T03:54:53.335Z,21.40
2019-04-06T03:57:27.549Z,20.45
2019-04-06T03:59:59.415Z,21.37
2019-04-06T04:02:31.968Z,20.43
2019-04-06T04:05:04.722Z,20.95
2019-04-06T04:07:37.589Z,21.35
2019-04-06T04:10:11.608Z,20.92
2019-04-06T04:12:46.405Z,21.95
2019-04-06T04:15:18.187Z,22.20
2019-04-06T04:17:51.086Z,22.52
2019-04-06T04:20:25.576Z,22.37
2019-04-06T04:22:58.681Z,21.25
2019-04-06T04:25:31.509Z,20.95
2019-04-06T04:28:05.723Z,21.45
2019-04-06T04:30:37.538Z,20.05
2019-04-06T04:33:13.113Z,21.57
2019-04-06T04:35:49.157Z,21.02
2019-04-06T04:38:23.722Z,21.68
2019-04-06T04:40:58.760Z,20.97
2019-04-06T04:43:33.100Z,20.90
2019-04-06T04:46:04.701Z,21.10
2019-04-06T04:48:35.989Z,21.33
2019-04-06T04:51:10.488Z,20.50
2019-04-06T04:53:42.104Z,21.52
2019-04-06T04:56:16.861Z,20.35
2019-04-06T04:58:49.487Z,21.57
2019-04-06T05:01:20.882Z,19.73
2019-04-06T05:03:52.629Z,21.42
2019-04-06T05:06:25.480Z,21.97
2019-04-06T05:09:00.728Z,21.02
2019-04-06T05:11:33.429Z,20.65
2019-04-06T05:14:44.638Z,20.80
2019-04-06T05:17:17.513Z,20.72
2019-04-06T05:19:50.003Z,20.30
2019-04-06T05:22:25.873Z,19.67
2019-04-06T05:24:58.812Z,20.30
2019-04-06T05:27:31.808Z,20.48
2019-04-06T05:30:10.478Z,21.15
2019-04-06T05:32:43.351Z,20.25
2019-04-06T05:35:17.442Z,20.02
2019-04-06T05:37:50.209Z,19.57
2019-04-06T05:40:24.600Z,19.77
2019-04-06T05:42:56.472Z,19.98
2019-04-06T05:45:28.859Z,20.23
2019-04-06T05:48:01.545Z,20.10
2019-04-06T05:50:34.184Z,21.07
2019-04-06T05:53:08.237Z,19.75
2019-04-06T05:55:41.109Z,20.45
2019-04-06T05:58:15.617Z,21.52
2019-04-06T06:00:47.375Z,20.43
2019-04-06T06:03:19.222Z,20.27
2019-04-06T06:05:50.824Z,26.02
2019-04-06T06:08:23.355Z,21.55
2019-04-06T06:10:56.802Z,23.38
2019-04-06T06:13:29.512Z,21.70
2019-04-06T06:16:02.079Z,21.27
2019-04-06T06:18:36.782Z,19.60
2019-04-06T06:21:08.228Z,22.13
2019-04-06T06:23:41.192Z,22.05
2019-04-06T06:26:13.990Z,21.12
2019-04-06T06:28:47.122Z,22.07
2019-04-06T06:31:20.808Z,21.57
2019-04-06T06:33:53.638Z,21.65
2019-04-06T06:36:27.896Z,20.75
2019-04-06T06:39:00.651Z,21.07
2019-04-06T06:41:32.197Z,20.48
2019-04-06T06:44:06.439Z,21.77
2019-04-06T06:46:39.017Z,21.33
2019-04-06T06:49:12.685Z,21.45
2019-04-06T06:51:47.355Z,21.87
2019-04-06T06:54:18.927Z,21.52
2019-04-06T06:56:51.554Z,20.75
2019-04-06T06:59:23.480Z,21.85
2019-04-06T07:01:58.072Z,21.05
2019-04-06T07:04:32.401Z,20.48
2019-04-06T07:07:05.320Z,20.77
2019-04-06T07:09:38.222Z,20.65
2019-04-06T07:12:10.968Z,20.23
2019-04-06T07:14:43.813Z,20.57
2019-04-06T07:17:16.686Z,19.52
2019-04-06T07:19:49.406Z,19.35
2019-04-06T07:22:23.761Z,19.92
2019-04-06T07:24:58.164Z,19.37
2019-04-06T07:27:29.712Z,19.77
2019-04-06T07:30:01.409Z,18.12
2019-04-06T07:32:32.984Z,17.12
2019-04-06T07:35:05.593Z,17.90
2019-04-06T07:37:37.615Z,17.32
2019-04-06T07:40:10.977Z,16.55
2019-04-06T07:42:42.743Z,16.07
2019-04-06T07:45:15.567Z,16.73
2019-04-06T07:47:48.367Z,15.95
2019-04-06T07:50:20.019Z,16.35
2019-04-06T07:52:52.145Z,16.10
2019-04-06T07:55:26.841Z,16.27
2019-04-06T07:57:59.544Z,18.37
2019-04-06T08:00:33.882Z,17.12
2019-04-06T08:03:07.162Z,17.57
2019-04-06T08:05:39.893Z,17.80
2019-04-06T08:08:12.564Z,18.42
2019-04-06T08:10:46.970Z,18.60
2019-04-06T08:13:21.584Z,19.77
2019-04-06T08:15:54.354Z,18.32
2019-04-06T08:18:29.226Z,19.12
2019-04-06T08:23:50.123Z,18.75
2019-04-06T08:26:25.174Z,18.02
2019-04-06T08:29:02.235Z,19.45
2019-04-06T08:31:32.837Z,19.27
2019-04-06T08:34:05.681Z,18.37
2019-04-06T08:36:40.717Z,18.17
2019-04-06T08:39:13.635Z,18.98
2019-04-06T08:41:48.439Z,19.80
2019-04-06T08:46:53.104Z,18.55
2019-04-06T08:49:25.705Z,19.27
2019-04-06T08:51:58.341Z,18.55
2019-04-06T08:54:32.013Z,19.20
2019-04-06T08:57:11.172Z,18.77
2019-04-06T08:59:43.660Z,18.73
2019-04-06T09:02:15.400Z,19.20
2019-04-06T09:04:47.363Z,18.57
2019-04-06T09:07:23.600Z,18.77
2019-04-06T09:09:57.672Z,19.50
2019-04-06T09:12:29.130Z,20.47
2019-04-06T09:15:03.594Z,19.70
2019-04-06T09:17:36.361Z,20.82
2019-04-06T09:20:29.192Z,19.73
2019-04-06T09:23:04.184Z,19.80
2019-04-06T09:28:11.066Z,19.50
2019-04-06T09:30:42.688Z,19.85
2019-04-06T09:33:14.090Z,19.35
2019-04-06T09:35:46.974Z,18.67
2019-04-06T09:38:24.329Z,19.55
2019-04-06T09:40:56.762Z,19.75
2019-04-06T09:43:28.666Z,19.23
2019-04-06T09:46:22.188Z,18.98
2019-04-06T09:48:57.427Z,18.67
2019-04-06T09:51:31.483Z,19.60
2019-04-06T09:54:21.907Z,19.23
2019-04-06T09:56:59.314Z,18.57
2019-04-06T09:59:36.978Z,18.98
2019-04-06T10:02:12.433Z,19.60
2019-04-06T10:05:04.331Z,19.75
2019-04-06T10:07:55.877Z,19.45
2019-04-06T10:10:49.533Z,19.50
2019-04-06T10:13:25.395Z,18.65
2019-04-06T10:15:59.413Z,20.08
2019-04-06T10:18:51.098Z,19.65
2019-04-06T10:21:30.082Z,18.32
2019-04-06T10:24:23.049Z,19.42
2019-04-06T10:26:57.017Z,19.92
2019-04-06T10:29:48.334Z,20.17
2019-04-06T10:32:30.178Z,19.85
2019-04-06T10:35:07.139Z,20.23
2019-04-06T10:37:45.335Z,23.62
2019-04-06T10:40:36.333Z,22.95
2019-04-06T10:43:11.148Z,24.23
2019-04-06T10:45:45.405Z,20.65
2019-04-06T10:48:22.754Z,21.33
2019-04-06T10:50:59.749Z,24.77
2019-04-06T10:53:36.795Z,24.37
2019-04-06T10:56:27.002Z,21.45
2019-04-06T10:59:18.204Z,23.83
2019-04-06T11:01:55.416Z,21.45
2019-04-06T11:04:34.004Z,20.32
2019-04-06T11:07:23.575Z,22.48
2019-04-06T11:10:01.625Z,22.00
2019-04-06T11:12:37.064Z,21.07
2019-04-06T11:15:27.122Z,20.43
2019-04-06T11:18:04.282Z,23.20
2019-04-06T11:20:44.802Z,23.95
2019-04-06T11:23:35.608Z,25.02
2019-04-06T11:26:25.026Z,24.63
2019-04-06T11:28:59.072Z,25.75
2019-04-06T11:31:49.705Z,29.02
2019-04-06T11:34:25.657Z,29.48
2019-04-06T11:37:01.729Z,28.12
2019-04-06T11:39:52.597Z,28.85
2019-04-06T11:42:43.224Z,29.00
2019-04-06T11:45:24.098Z,28.98
2019-04-06T11:48:13.393Z,29.67
2019-04-06T11:50:47.659Z,30.12
2019-04-06T11:53:25.135Z,29.10
2019-04-06T11:56:15.669Z,27.55
2019-04-06T11:58:51.354Z,27.00
2019-04-06T12:01:45.443Z,26.77
2019-04-06T12:04:25.176Z,28.05
2019-04-06T12:07:14.307Z,26.90
2019-04-06T12:10:03.546Z,27.55
2019-04-06T12:12:43.175Z,28.07
2019-04-06T12:15:33.678Z,27.48
2019-04-06T12:18:05.948Z,27.17
2019-04-06T12:20:41.092Z,28.55
2019-04-06T12:23:18.104Z,28.10
2019-04-06T12:25:54.980Z,28.25
2019-04-06T12:28:47.598Z,28.30
2019-04-06T12:31:37.726Z,27.45
2019-04-06T12:34:20.033Z,27.50
2019-04-06T12:36:54.097Z,28.50
2019-04-06T12:39:31.924Z,28.67
2019-04-06T12:42:21.640Z,30.32
2019-04-06T12:44:57.651Z,29.07
2019-04-06T12:47:33.223Z,29.27
2019-04-06T12:50:11.971Z,27.85
2019-04-06T12:53:01.540Z,28.38
2019-04-06T12:55:44.207Z,28.75
2019-04-06T12:58:33.956Z,29.10
2019-04-06T13:01:15.784Z,29.77
2019-04-06T13:03:52.172Z,29.05
2019-04-06T13:06:26.359Z,29.45
2019-04-06T13:09:04.770Z,29.05
2019-04-06T13:11:39.097Z,29.18
2019-04-06T13:14:13.130Z,31.20
2019-04-06T13:16:48.599Z,30.08
2019-04-06T13:19:39.341Z,30.45
2019-04-06T13:22:29.935Z,30.30
2019-04-06T13:25:07.307Z,30.57
2019-04-06T13:27:39.739Z,30.20
2019-04-06T13:30:21.066Z,30.52
2019-04-06T13:32:52.432Z,31.12
2019-04-06T13:35:26.728Z,28.10
2019-04-06T13:38:01.918Z,28.32
2019-04-06T13:40:35.354Z,29.57
2019-04-06T13:43:12.471Z,29.92
2019-04-06T13:46:01.845Z,29.87
2019-04-06T13:48:39.954Z,29.12
2019-04-06T13:51:31.596Z,31.45
2019-04-06T13:54:22.317Z,31.25
2019-04-06T13:57:00.506Z,30.62
2019-04-06T13:59:34.651Z,29.90
2019-04-06T14:02:27.319Z,29.35
2019-04-06T14:05:08.648Z,29.57
2019-04-06T14:07:54.418Z,28.60
2019-04-06T14:10:33.171Z,30.62
2019-04-06T14:13:09.423Z,29.95
2019-04-06T14:15:47.745Z,27.85
2019-04-06T14:18:23.499Z,28.92
2019-04-06T14:21:08.084Z,28.57
2019-04-06T14:24:01.687Z,29.00
2019-04-06T14:26:52.574Z,28.75
2019-04-06T14:29:46.214Z,30.60
2019-04-06T14:32:38.178Z,33.23
2019-04-06T14:35:28.549Z,34.13
2019-04-06T14:38:19.384Z,35.48
2019-04-06T14:41:09.588Z,32.98
2019-04-06T14:44:01.238Z,36.30
2019-04-06T14:46:51.962Z,36.83
2019-04-06T14:49:32.588Z,36.80
2019-04-06T14:52:11.260Z,35.98
2019-04-06T14:55:02.811Z,36.38
2019-04-06T14:57:38.491Z,33.98
2019-04-06T15:00:13.369Z,37.95
2019-04-06T15:02:52.091Z,37.50
2019-04-06T15:05:24.664Z,35.48
2019-04-06T15:08:16.036Z,37.65
2019-04-06T15:11:07.247Z,37.50
2019-04-06T15:13:44.106Z,35.17
2019-04-06T15:16:15.601Z,38.23
2019-04-06T15:19:18.305Z,38.35
2019-04-06T15:22:12.557Z,38.17
2019-04-06T15:25:05.958Z,36.83
2019-04-06T15:27:42.885Z,37.83
2019-04-06T15:30:31.895Z,36.42
2019-04-06T15:33:05.719Z,36.28
2019-04-06T15:35:40.194Z,34.85
2019-04-06T15:38:17.418Z,35.03
2019-04-06T15:40:59.537Z,35.43
2019-04-06T15:43:34.068Z,39.48
2019-04-06T15:46:11.907Z,40.60
2019-04-06T15:48:47.146Z,37.90
2019-04-06T15:51:36.108Z,38.38
2019-04-06T15:54:11.512Z,36.53
2019-04-06T15:59:39.622Z,34.73
2019-04-06T16:02:26.936Z,36.38
2019-04-06T16:05:07.645Z,35.43
2019-04-06T16:07:51.511Z,34.43
2019-04-06T16:10:33.676Z,35.50
2019-04-06T16:13:06.441Z,36.55
2019-04-06T16:15:59.577Z,36.75
2019-04-06T16:18:53.074Z,36.30
2019-04-06T16:21:36.212Z,37.17
2019-04-06T16:24:19.202Z,36.38
2019-04-06T16:26:54.117Z,37.73
2019-04-06T16:29:45.072Z,37.00
2019-04-06T16:32:31.813Z,35.52
2019-04-06T16:35:12.645Z,36.38
2019-04-06T16:37:50.390Z,36.93
2019-04-06T16:40:34.960Z,36.50
2019-04-06T16:43:11.960Z,36.98
2019-04-06T16:46:02.539Z,36.75
2019-04-06T16:48:52.984Z,35.38
2019-04-06T16:51:42.570Z,35.80
2019-04-06T16:54:17.702Z,37.00
2019-04-06T16:56:54.944Z,35.60
2019-04-06T16:59:46.305Z,37.33
2019-04-06T17:02:24.426Z,41.37
2019-04-06T17:04:58.040Z,41.35
2019-04-06T17:07:33.556Z,40.15
2019-04-06T17:10:24.040Z,40.28
2019-04-06T17:13:03.794Z,41.60
2019-04-06T17:15:54.103Z,41.25
2019-04-06T17:18:31.121Z,39.15
2019-04-06T17:21:22.898Z,40.85
2019-04-06T17:24:13.266Z,40.90
2019-04-06T17:27:03.920Z,42.08
2019-04-06T17:29:37.262Z,42.73
2019-04-06T17:32:11.284Z,41.95
2019-04-06T17:35:00.781Z,43.38
2019-04-06T17:37:33.713Z,43.85
2019-04-06T17:40:12.259Z,43.68
2019-04-06T17:42:46.600Z,43.95
2019-04-06T17:45:37.009Z,48.20
2019-04-06T17:48:28.505Z,47.53
2019-04-06T17:51:03.190Z,48.83
2019-04-06T17:53:43.651Z,50.20
2019-04-06T17:56:18.184Z,47.35
2019-04-06T17:58:55.175Z,51.35
2019-04-06T18:01:44.643Z,55.45
2019-04-06T18:04:35.762Z,49.50
2019-04-06T18:07:26.544Z,50.83
2019-04-06T18:10:15.393Z,52.62
2019-04-06T18:12:59.073Z,52.30
2019-04-06T18:15:34.880Z,51.18
2019-04-06T18:18:09.497Z,50.55
2019-04-06T18:20:45.045Z,49.83
2019-04-06T18:23:19.764Z,51.30
2019-04-06T18:25:51.878Z,51.37
2019-04-06T18:28:29.616Z,50.33
2019-04-06T18:31:19.157Z,51.55
2019-04-06T18:33:51.980Z,51.92
2019-04-06T18:36:31.535Z,48.83
2019-04-06T18:39:24.229Z,50.23
2019-04-06T18:41:58.700Z,50.45
2019-04-06T18:44:31.018Z,48.90
2019-04-06T18:47:03.831Z,48.05
2019-04-06T18:49:36.084Z,50.10
2019-04-06T18:52:08.837Z,49.53
2019-04-06T18:54:41.841Z,48.45
2019-04-06T18:57:13.737Z,49.15
2019-04-06T18:59:48.320Z,48.87
2019-04-06T19:02:20.383Z,51.33
2019-04-06T19:04:54.242Z,50.20
2019-04-06T19:07:26.911Z,50.60
2019-04-06T19:10:00.429Z,51.23
2019-04-06T19:12:32.560Z,50.20
2019-04-06T19:15:04.220Z,50.45
2019-04-06T19:17:37.252Z,51.92
2019-04-06T19:20:10.447Z,55.12
2019-04-06T19:22:43.539Z,55.48
2019-04-06T19:25:15.029Z,59.10
2019-04-06T19:27:47.964Z,60.23
2019-04-06T19:30:22.650Z,63.20
2019-04-06T19:32:55.108Z,59.63
2019-04-06T19:35:26.940Z,58.42
2019-04-06T19:37:59.634Z,60.55
2019-04-06T19:40:31.833Z,60.65
2019-04-06T19:43:03.392Z,57.30
2019-04-06T19:45:39.077Z,56.28
2019-04-06T19:48:11.901Z,53.68
2019-04-06T19:50:43.983Z,56.35
2019-04-06T19:53:16.588Z,55.03
2019-04-06T19:55:48.012Z,56.48
2019-04-06T19:58:22.689Z,56.20
2019-04-06T20:00:54.856Z,55.95
2019-04-06T20:03:34.677Z,54.15
2019-04-06T20:06:01.240Z,56.00
2019-04-06T20:08:36.263Z,55.48
2019-04-06T20:11:09.887Z,55.48
2019-04-06T20:13:42.438Z,53.40
2019-04-06T20:16:15.291Z,54.53
2019-04-06T20:18:46.891Z,55.08
2019-04-06T20:21:21.690Z,53.98
2019-04-06T20:23:54.229Z,53.05
2019-04-06T20:26:27.648Z,52.43
2019-04-06T20:28:59.256Z,51.55
2019-04-06T20:31:32.022Z,51.25
2019-04-06T20:34:03.878Z,52.85
2019-04-06T20:36:37.788Z,49.15
2019-04-06T20:39:14.113Z,49.38
2019-04-06T20:41:46.732Z,49.42
2019-04-06T20:44:19.343Z,52.65
2019-04-06T20:46:51.138Z,50.80
2019-04-06T20:49:24.665Z,50.95
2019-04-06T20:51:58.728Z,49.55
2019-04-06T20:54:29.760Z,49.50
2019-04-06T20:57:01.637Z,50.25
2019-04-06T20:59:34.730Z,50.85
2019-04-06T21:02:06.118Z,52.17
2019-04-06T21:04:37.650Z,49.35
2019-04-06T21:07:09.495Z,50.80
2019-04-06T21:09:43.869Z,52.58
2019-04-06T21:12:15.983Z,52.53
2019-04-06T21:14:48.536Z,52.30
2019-04-06T21:17:20.354Z,53.38
2019-04-06T21:19:51.941Z,53.05
2019-04-06T21:22:24.967Z,53.25
2019-04-06T21:24:59.312Z,52.70
2019-04-06T21:27:34.147Z,52.85
2019-04-06T21:30:10.338Z,52.70
2019-04-06T21:32:42.719Z,52.60
2019-04-06T21:35:15.895Z,52.25
2019-04-06T21:37:47.862Z,51.15
2019-04-06T21:40:22.478Z,51.95
2019-04-06T21:42:58.901Z,51.58
2019-04-06T21:45:34.468Z,51.45
2019-04-06T21:48:09.463Z,52.00
2019-04-06T21:50:42.067Z,51.30
2019-04-06T21:53:15.018Z,53.73
2019-04-06T21:55:48.260Z,54.63
2019-04-06T21:58:20.976Z,53.85
2019-04-06T22:00:55.289Z,56.80
2019-04-06T22:03:28.139Z,57.15
2019-04-06T22:05:59.691Z,56.05
2019-04-06T22:08:35.056Z,55.88
2019-04-06T22:11:10.759Z,55.58
2019-04-06T22:13:44.242Z,54.40
2019-04-06T22:16:16.984Z,52.93
2019-04-06T22:18:49.912Z,58.45
2019-04-06T22:21:21.582Z,55.05
2019-04-06T22:23:54.607Z,56.05
2019-04-06T22:26:26.275Z,56.80
2019-04-06T22:28:58.968Z,57.78
2019-04-06T22:31:31.524Z,55.33
2019-04-06T22:34:03.312Z,55.50
2019-04-06T22:36:34.687Z,56.28
2019-04-06T22:39:08.996Z,57.67
2019-04-06T22:41:42.022Z,58.25
2019-04-06T22:44:13.564Z,58.95
2019-04-06T22:46:47.846Z,55.03
2019-04-06T22:49:22.713Z,56.28
2019-04-06T22:51:56.199Z,58.95
2019-04-06T22:54:29.573Z,58.83
2019-04-06T22:57:02.676Z,57.93
2019-04-06T22:59:35.520Z,58.68
2019-04-06T23:02:08.101Z,58.58
2019-04-06T23:04:49.504Z,58.58
2019-04-06T23:07:20.167Z,56.70
2019-04-06T23:12:27.730Z,59.27
2019-04-06T23:15:00.416Z,57.98
2019-04-06T23:17:32.025Z,59.25
2019-04-06T23:20:08.280Z,396.40
2019-04-06T23:22:40.056Z,321.52
2019-04-06T23:25:11.798Z,179.70
2019-04-06T23:27:43.529Z,107.03
2019-04-06T23:30:16.802Z,79.30
2019-04-06T23:32:49.369Z,72.82
2019-04-06T23:35:22.243Z,66.67
2019-04-06T23:37:53.931Z,64.55
2019-04-06T23:40:27.061Z,58.40
2019-04-06T23:43:01.973Z,57.73
2019-04-06T23:45:34.684Z,55.88
2019-04-06T23:48:07.313Z,57.05
2019-04-06T23:50:40.508Z,58.08
2019-04-06T23:53:13.652Z,59.77
2019-04-06T23:55:46.294Z,59.90
2019-04-06T23:58:18.969Z,61.63
